sensor_id;sensor_type;location;lat;lon;timestamp;temperature;humidity
45715;DHT22;31430;61.646;24.704;2023-05-10T00:01:49;4.60;77.60
45715;DHT22;31430;61.646;24.704;2023-05-10T00:04:14;4.40;78.60
45715;DHT22;31430;61.646;24.704;2023-05-10T00:20:38;3.70;85.10
45715;DHT22;31430;61.646;24.704;2023-05-10T00:23:04;3.60;87.40
45715;DHT22;31430;61.646;24.704;2023-05-10T00:25:30;3.60;86.80
45715;DHT22;31430;61.646;24.704;2023-05-10T00:27:55;3.60;86.30
45715;DHT22;31430;61.646;24.704;2023-05-10T00:30:22;3.60;87.30
45715;DHT22;31430;61.646;24.704;2023-05-10T00:32:48;3.60;88.60
45715;DHT22;31430;61.646;24.704;2023-05-10T00:35:15;3.50;88.90
45715;DHT22;31430;61.646;24.704;2023-05-10T00:37:41;3.40;90.10
45715;DHT22;31430;61.646;24.704;2023-05-10T00:40:07;3.40;90.30
45715;DHT22;31430;61.646;24.704;2023-05-10T00:42:33;3.30;91.20
45715;DHT22;31430;61.646;24.704;2023-05-10T00:44:58;3.20;92.00
45715;DHT22;31430;61.646;24.704;2023-05-10T00:47:24;3.20;92.40
45715;DHT22;31430;61.646;24.704;2023-05-10T00:49:50;3.20;92.40
45715;DHT22;31430;61.646;24.704;2023-05-10T00:52:16;3.20;92.00
45715;DHT22;31430;61.646;24.704;2023-05-10T00:54:41;3.20;92.80
45715;DHT22;31430;61.646;24.704;2023-05-10T00:57:07;3.20;92.90
45715;DHT22;31430;61.646;24.704;2023-05-10T00:59:33;3.20;93.10
45715;DHT22;31430;61.646;24.704;2023-05-10T01:01:59;3.20;93.30
45715;DHT22;31430;61.646;24.704;2023-05-10T01:04:24;3.20;93.40
45715;DHT22;31430;61.646;24.704;2023-05-10T01:06:54;3.20;93.60
45715;DHT22;31430;61.646;24.704;2023-05-10T01:09:21;3.10;93.00
45715;DHT22;31430;61.646;24.704;2023-05-10T01:11:47;3.10;93.90
45715;DHT22;31430;61.646;24.704;2023-05-10T01:14:15;3.00;93.90
45715;DHT22;31430;61.646;24.704;2023-05-10T01:16:42;3.00;94.20
45715;DHT22;31430;61.646;24.704;2023-05-10T01:19:19;3.00;93.60
45715;DHT22;31430;61.646;24.704;2023-05-10T01:22:08;3.00;94.20
45715;DHT22;31430;61.646;24.704;2023-05-10T01:30:21;2.90;94.20
45715;DHT22;31430;61.646;24.704;2023-05-10T01:35:46;2.90;94.40
45715;DHT22;31430;61.646;24.704;2023-05-10T01:38:29;2.80;95.50
45715;DHT22;31430;61.646;24.704;2023-05-10T01:41:40;2.80;95.70
45715;DHT22;31430;61.646;24.704;2023-05-10T01:46:38;2.60;98.60
45715;DHT22;31430;61.646;24.704;2023-05-10T01:49:13;2.60;98.60
45715;DHT22;31430;61.646;24.704;2023-05-10T01:51:46;2.70;99.80
45715;DHT22;31430;61.646;24.704;2023-05-10T01:54:13;2.80;99.40
45715;DHT22;31430;61.646;24.704;2023-05-10T01:56:40;2.90;99.90
45715;DHT22;31430;61.646;24.704;2023-05-10T01:59:12;2.90;99.90
45715;DHT22;31430;61.646;24.704;2023-05-10T02:01:40;2.90;98.40
45715;DHT22;31430;61.646;24.704;2023-05-10T02:04:07;2.90;99.70
45715;DHT22;31430;61.646;24.704;2023-05-10T02:06:34;3.00;99.50
45715;DHT22;31430;61.646;24.704;2023-05-10T02:09:01;3.10;99.90
45715;DHT22;31430;61.646;24.704;2023-05-10T02:11:29;3.20;98.10
45715;DHT22;31430;61.646;24.704;2023-05-10T02:13:58;3.20;99.90
45715;DHT22;31430;61.646;24.704;2023-05-10T02:16:26;3.30;99.90
45715;DHT22;31430;61.646;24.704;2023-05-10T02:18:52;3.40;99.20
45715;DHT22;31430;61.646;24.704;2023-05-10T02:21:20;3.40;98.70
45715;DHT22;31430;61.646;24.704;2023-05-10T02:23:48;3.50;98.40
45715;DHT22;31430;61.646;24.704;2023-05-10T02:26:16;3.60;98.60
45715;DHT22;31430;61.646;24.704;2023-05-10T02:28:43;3.70;98.50
45715;DHT22;31430;61.646;24.704;2023-05-10T02:31:09;3.80;98.30
45715;DHT22;31430;61.646;24.704;2023-05-10T02:33:38;4.00;97.80
45715;DHT22;31430;61.646;24.704;2023-05-10T02:36:05;4.10;97.40
45715;DHT22;31430;61.646;24.704;2023-05-10T02:38:33;4.30;96.00
45715;DHT22;31430;61.646;24.704;2023-05-10T02:41:00;4.60;95.00
45715;DHT22;31430;61.646;24.704;2023-05-10T02:43:28;4.70;94.50
45715;DHT22;31430;61.646;24.704;2023-05-10T02:45:55;5.00;93.60
45715;DHT22;31430;61.646;24.704;2023-05-10T02:48:21;5.20;92.50
45715;DHT22;31430;61.646;24.704;2023-05-10T02:50:47;5.50;91.80
45715;DHT22;31430;61.646;24.704;2023-05-10T02:53:22;5.60;91.40
45715;DHT22;31430;61.646;24.704;2023-05-10T02:55:51;5.80;91.20
45715;DHT22;31430;61.646;24.704;2023-05-10T02:58:18;6.00;90.20
45715;DHT22;31430;61.646;24.704;2023-05-10T03:00:46;6.10;88.80
45715;DHT22;31430;61.646;24.704;2023-05-10T03:03:12;6.20;87.50
45715;DHT22;31430;61.646;24.704;2023-05-10T03:05:38;6.30;86.20
45715;DHT22;31430;61.646;24.704;2023-05-10T03:08:04;6.30;87.70
45715;DHT22;31430;61.646;24.704;2023-05-10T03:10:31;6.30;87.20
45715;DHT22;31430;61.646;24.704;2023-05-10T03:13:14;6.30;85.60
45715;DHT22;31430;61.646;24.704;2023-05-10T03:15:59;6.40;86.50
45715;DHT22;31430;61.646;24.704;2023-05-10T03:18:33;6.40;85.40
45715;DHT22;31430;61.646;24.704;2023-05-10T03:21:04;6.50;85.70
45715;DHT22;31430;61.646;24.704;2023-05-10T03:23:35;6.50;85.20
45715;DHT22;31430;61.646;24.704;2023-05-10T03:26:02;6.50;85.90
45715;DHT22;31430;61.646;24.704;2023-05-10T03:28:30;6.60;84.30
45715;DHT22;31430;61.646;24.704;2023-05-10T03:30:58;6.70;84.40
45715;DHT22;31430;61.646;24.704;2023-05-10T03:33:24;6.80;84.30
45715;DHT22;31430;61.646;24.704;2023-05-10T03:35:50;6.80;83.80
45715;DHT22;31430;61.646;24.704;2023-05-10T03:38:16;6.70;84.10
45715;DHT22;31430;61.646;24.704;2023-05-10T03:40:41;6.80;84.20
45715;DHT22;31430;61.646;24.704;2023-05-10T03:43:07;6.80;83.30
45715;DHT22;31430;61.646;24.704;2023-05-10T03:45:33;6.90;82.10
45715;DHT22;31430;61.646;24.704;2023-05-10T03:47:58;7.00;83.30
45715;DHT22;31430;61.646;24.704;2023-05-10T03:50:24;7.00;82.70
45715;DHT22;31430;61.646;24.704;2023-05-10T03:52:50;7.00;83.40
45715;DHT22;31430;61.646;24.704;2023-05-10T03:55:16;7.00;81.60
45715;DHT22;31430;61.646;24.704;2023-05-10T03:57:42;7.10;82.00
45715;DHT22;31430;61.646;24.704;2023-05-10T04:00:08;7.20;80.60
45715;DHT22;31430;61.646;24.704;2023-05-10T04:02:35;7.20;82.80
45715;DHT22;31430;61.646;24.704;2023-05-10T04:05:00;7.30;79.80
45715;DHT22;31430;61.646;24.704;2023-05-10T04:07:26;7.30;80.90
45715;DHT22;31430;61.646;24.704;2023-05-10T04:09:52;7.50;80.90
45715;DHT22;31430;61.646;24.704;2023-05-10T04:12:18;7.50;80.70
45715;DHT22;31430;61.646;24.704;2023-05-10T04:14:43;7.70;80.40
45715;DHT22;31430;61.646;24.704;2023-05-10T04:17:09;7.80;79.20
45715;DHT22;31430;61.646;24.704;2023-05-10T04:19:35;8.00;77.90
45715;DHT22;31430;61.646;24.704;2023-05-10T04:22:02;8.00;77.80
45715;DHT22;31430;61.646;24.704;2023-05-10T04:24:28;8.00;77.80
45715;DHT22;31430;61.646;24.704;2023-05-10T04:26:54;8.20;76.20
45715;DHT22;31430;61.646;24.704;2023-05-10T04:29:20;8.40;77.20
45715;DHT22;31430;61.646;24.704;2023-05-10T04:31:46;8.50;75.80
45715;DHT22;31430;61.646;24.704;2023-05-10T04:34:12;8.60;74.10
45715;DHT22;31430;61.646;24.704;2023-05-10T04:36:38;8.60;75.70
45715;DHT22;31430;61.646;24.704;2023-05-10T04:39:04;8.80;74.00
45715;DHT22;31430;61.646;24.704;2023-05-10T04:41:29;8.90;72.60
45715;DHT22;31430;61.646;24.704;2023-05-10T04:43:55;9.10;72.80
45715;DHT22;31430;61.646;24.704;2023-05-10T04:46:21;9.40;72.90
45715;DHT22;31430;61.646;24.704;2023-05-10T04:48:47;9.80;72.60
45715;DHT22;31430;61.646;24.704;2023-05-10T04:51:12;10.20;70.70
45715;DHT22;31430;61.646;24.704;2023-05-10T04:53:38;10.30;71.30
45715;DHT22;31430;61.646;24.704;2023-05-10T04:56:04;10.30;69.80
45715;DHT22;31430;61.646;24.704;2023-05-10T04:58:30;10.30;68.70
45715;DHT22;31430;61.646;24.704;2023-05-10T05:00:56;10.40;68.30
45715;DHT22;31430;61.646;24.704;2023-05-10T05:03:21;10.40;69.20
45715;DHT22;31430;61.646;24.704;2023-05-10T05:05:48;10.60;68.00
45715;DHT22;31430;61.646;24.704;2023-05-10T05:08:13;10.50;68.20
45715;DHT22;31430;61.646;24.704;2023-05-10T05:10:39;10.70;68.70
45715;DHT22;31430;61.646;24.704;2023-05-10T05:13:05;10.50;68.00
45715;DHT22;31430;61.646;24.704;2023-05-10T05:15:31;10.60;68.80
45715;DHT22;31430;61.646;24.704;2023-05-10T05:17:56;10.60;68.00
45715;DHT22;31430;61.646;24.704;2023-05-10T05:20:22;10.60;68.80
45715;DHT22;31430;61.646;24.704;2023-05-10T05:22:48;10.80;69.30
45715;DHT22;31430;61.646;24.704;2023-05-10T05:25:14;11.00;68.90
45715;DHT22;31430;61.646;24.704;2023-05-10T05:27:40;10.70;68.20
45715;DHT22;31430;61.646;24.704;2023-05-10T05:30:07;10.90;69.10
45715;DHT22;31430;61.646;24.704;2023-05-10T05:32:33;11.00;67.80
45715;DHT22;31430;61.646;24.704;2023-05-10T05:34:58;10.90;67.60
45715;DHT22;31430;61.646;24.704;2023-05-10T05:37:24;10.90;69.10
45715;DHT22;31430;61.646;24.704;2023-05-10T05:39:50;11.20;67.10
45715;DHT22;31430;61.646;24.704;2023-05-10T05:42:16;11.20;67.10
45715;DHT22;31430;61.646;24.704;2023-05-10T05:44:44;10.90;67.40
45715;DHT22;31430;61.646;24.704;2023-05-10T05:47:10;10.90;68.60
45715;DHT22;31430;61.646;24.704;2023-05-10T05:49:36;11.10;67.40
45715;DHT22;31430;61.646;24.704;2023-05-10T05:52:03;11.20;67.10
45715;DHT22;31430;61.646;24.704;2023-05-10T05:54:29;11.40;67.80
45715;DHT22;31430;61.646;24.704;2023-05-10T05:56:59;11.30;67.40
45715;DHT22;31430;61.646;24.704;2023-05-10T05:59:25;11.60;66.70
45715;DHT22;31430;61.646;24.704;2023-05-10T06:01:51;11.70;65.90
45715;DHT22;31430;61.646;24.704;2023-05-10T06:04:17;11.60;65.60
45715;DHT22;31430;61.646;24.704;2023-05-10T06:06:43;11.80;65.80
45715;DHT22;31430;61.646;24.704;2023-05-10T06:09:10;12.00;66.10
45715;DHT22;31430;61.646;24.704;2023-05-10T06:11:35;12.00;64.70
45715;DHT22;31430;61.646;24.704;2023-05-10T06:14:02;12.10;65.60
45715;DHT22;31430;61.646;24.704;2023-05-10T06:16:29;12.40;64.00
45715;DHT22;31430;61.646;24.704;2023-05-10T06:18:54;12.30;64.10
45715;DHT22;31430;61.646;24.704;2023-05-10T06:21:20;12.40;63.00
45715;DHT22;31430;61.646;24.704;2023-05-10T06:23:46;12.40;62.40
45715;DHT22;31430;61.646;24.704;2023-05-10T06:26:12;12.70;63.70
45715;DHT22;31430;61.646;24.704;2023-05-10T06:28:39;12.70;61.80
45715;DHT22;31430;61.646;24.704;2023-05-10T06:31:05;12.90;60.30
45715;DHT22;31430;61.646;24.704;2023-05-10T06:33:32;12.80;58.90
45715;DHT22;31430;61.646;24.704;2023-05-10T06:35:58;12.80;59.10
45715;DHT22;31430;61.646;24.704;2023-05-10T06:38:23;12.80;59.40
45715;DHT22;31430;61.646;24.704;2023-05-10T06:40:49;12.60;58.60
45715;DHT22;31430;61.646;24.704;2023-05-10T06:43:15;12.70;58.10
45715;DHT22;31430;61.646;24.704;2023-05-10T06:45:40;12.70;57.90
45715;DHT22;31430;61.646;24.704;2023-05-10T06:48:06;12.90;59.20
45715;DHT22;31430;61.646;24.704;2023-05-10T06:50:32;12.80;58.00
45715;DHT22;31430;61.646;24.704;2023-05-10T06:52:58;12.80;58.30
45715;DHT22;31430;61.646;24.704;2023-05-10T06:55:24;12.90;57.70
45715;DHT22;31430;61.646;24.704;2023-05-10T06:57:50;12.80;57.60
45715;DHT22;31430;61.646;24.704;2023-05-10T07:00:17;12.60;57.40
45715;DHT22;31430;61.646;24.704;2023-05-10T07:02:42;12.50;58.30
45715;DHT22;31430;61.646;24.704;2023-05-10T07:05:09;12.80;58.90
45715;DHT22;31430;61.646;24.704;2023-05-10T07:07:34;12.60;58.30
45715;DHT22;31430;61.646;24.704;2023-05-10T07:10:00;12.50;59.50
45715;DHT22;31430;61.646;24.704;2023-05-10T07:12:26;12.70;59.20
45715;DHT22;31430;61.646;24.704;2023-05-10T07:14:52;12.80;59.70
45715;DHT22;31430;61.646;24.704;2023-05-10T07:17:17;12.90;58.30
45715;DHT22;31430;61.646;24.704;2023-05-10T07:19:43;12.70;59.50
45715;DHT22;31430;61.646;24.704;2023-05-10T07:22:09;12.90;60.10
45715;DHT22;31430;61.646;24.704;2023-05-10T07:24:35;13.20;60.50
45715;DHT22;31430;61.646;24.704;2023-05-10T07:27:01;13.30;59.10
45715;DHT22;31430;61.646;24.704;2023-05-10T07:29:26;13.50;58.00
45715;DHT22;31430;61.646;24.704;2023-05-10T07:31:52;13.20;58.10
45715;DHT22;31430;61.646;24.704;2023-05-10T07:34:18;13.10;58.10
45715;DHT22;31430;61.646;24.704;2023-05-10T07:36:44;13.10;58.20
45715;DHT22;31430;61.646;24.704;2023-05-10T07:39:09;13.10;57.80
45715;DHT22;31430;61.646;24.704;2023-05-10T07:41:35;13.00;58.20
45715;DHT22;31430;61.646;24.704;2023-05-10T07:44:03;13.10;58.80
45715;DHT22;31430;61.646;24.704;2023-05-10T07:46:29;13.40;58.10
45715;DHT22;31430;61.646;24.704;2023-05-10T07:48:55;13.20;56.70
45715;DHT22;31430;61.646;24.704;2023-05-10T07:51:21;13.50;58.00
45715;DHT22;31430;61.646;24.704;2023-05-10T07:53:46;13.80;57.40
45715;DHT22;31430;61.646;24.704;2023-05-10T07:56:26;14.00;57.00
45715;DHT22;31430;61.646;24.704;2023-05-10T07:58:58;14.10;56.70
45715;DHT22;31430;61.646;24.704;2023-05-10T08:01:25;14.40;58.30
45715;DHT22;31430;61.646;24.704;2023-05-10T08:03:51;14.70;55.30
45715;DHT22;31430;61.646;24.704;2023-05-10T08:06:19;14.70;55.90
45715;DHT22;31430;61.646;24.704;2023-05-10T08:08:48;14.70;54.70
45715;DHT22;31430;61.646;24.704;2023-05-10T08:11:18;14.80;55.50
45715;DHT22;31430;61.646;24.704;2023-05-10T08:13:46;15.10;55.30
45715;DHT22;31430;61.646;24.704;2023-05-10T08:16:11;14.90;55.10
45715;DHT22;31430;61.646;24.704;2023-05-10T08:18:38;14.90;55.20
45715;DHT22;31430;61.646;24.704;2023-05-10T08:21:04;14.80;54.30
45715;DHT22;31430;61.646;24.704;2023-05-10T08:23:30;14.90;54.70
45715;DHT22;31430;61.646;24.704;2023-05-10T08:25:55;14.70;54.20
45715;DHT22;31430;61.646;24.704;2023-05-10T08:28:21;14.90;55.30
45715;DHT22;31430;61.646;24.704;2023-05-10T08:30:47;15.00;53.70
45715;DHT22;31430;61.646;24.704;2023-05-10T08:33:13;15.00;54.70
45715;DHT22;31430;61.646;24.704;2023-05-10T08:35:38;15.10;53.90
45715;DHT22;31430;61.646;24.704;2023-05-10T08:38:04;15.20;53.70
45715;DHT22;31430;61.646;24.704;2023-05-10T08:40:30;15.50;54.90
45715;DHT22;31430;61.646;24.704;2023-05-10T08:43:01;15.40;52.90
45715;DHT22;31430;61.646;24.704;2023-05-10T08:45:33;15.60;52.80
45715;DHT22;31430;61.646;24.704;2023-05-10T08:48:01;15.40;51.80
45715;DHT22;31430;61.646;24.704;2023-05-10T08:50:27;15.50;51.40
45715;DHT22;31430;61.646;24.704;2023-05-10T08:52:59;15.90;51.70
45715;DHT22;31430;61.646;24.704;2023-05-10T08:55:25;16.00;52.10
45715;DHT22;31430;61.646;24.704;2023-05-10T08:57:51;16.20;51.90
45715;DHT22;31430;61.646;24.704;2023-05-10T09:00:17;16.40;52.30
45715;DHT22;31430;61.646;24.704;2023-05-10T09:02:44;16.60;51.40
45715;DHT22;31430;61.646;24.704;2023-05-10T09:05:11;16.90;50.70
45715;DHT22;31430;61.646;24.704;2023-05-10T09:07:37;17.10;51.10
45715;DHT22;31430;61.646;24.704;2023-05-10T09:10:04;17.20;50.50
45715;DHT22;31430;61.646;24.704;2023-05-10T09:12:30;17.00;48.60
45715;DHT22;31430;61.646;24.704;2023-05-10T09:14:56;16.70;49.60
45715;DHT22;31430;61.646;24.704;2023-05-10T09:17:23;16.70;50.50
45715;DHT22;31430;61.646;24.704;2023-05-10T09:19:50;16.50;49.80
45715;DHT22;31430;61.646;24.704;2023-05-10T09:22:16;16.70;50.80
45715;DHT22;31430;61.646;24.704;2023-05-10T09:24:42;16.60;50.90
45715;DHT22;31430;61.646;24.704;2023-05-10T09:27:10;16.70;49.60
45715;DHT22;31430;61.646;24.704;2023-05-10T09:29:41;16.90;51.40
45715;DHT22;31430;61.646;24.704;2023-05-10T09:32:07;16.80;52.00
45715;DHT22;31430;61.646;24.704;2023-05-10T09:34:33;16.70;50.10
45715;DHT22;31430;61.646;24.704;2023-05-10T09:37:02;16.80;50.60
45715;DHT22;31430;61.646;24.704;2023-05-10T09:39:32;17.40;50.50
45715;DHT22;31430;61.646;24.704;2023-05-10T09:41:59;17.20;49.60
45715;DHT22;31430;61.646;24.704;2023-05-10T09:44:26;17.50;49.40
45715;DHT22;31430;61.646;24.704;2023-05-10T09:46:52;17.60;48.40
45715;DHT22;31430;61.646;24.704;2023-05-10T09:49:19;17.80;48.60
45715;DHT22;31430;61.646;24.704;2023-05-10T09:51:46;17.60;50.00
45715;DHT22;31430;61.646;24.704;2023-05-10T09:54:16;18.20;48.30
45715;DHT22;31430;61.646;24.704;2023-05-10T09:56:42;17.90;49.00
45715;DHT22;31430;61.646;24.704;2023-05-10T09:59:12;17.70;48.00
45715;DHT22;31430;61.646;24.704;2023-05-10T10:01:38;17.60;50.30
45715;DHT22;31430;61.646;24.704;2023-05-10T10:04:05;17.60;49.40
45715;DHT22;31430;61.646;24.704;2023-05-10T10:06:38;18.00;49.30
45715;DHT22;31430;61.646;24.704;2023-05-10T10:09:08;17.80;49.40
45715;DHT22;31430;61.646;24.704;2023-05-10T10:11:35;17.70;48.10
45715;DHT22;31430;61.646;24.704;2023-05-10T10:14:01;17.90;48.80
45715;DHT22;31430;61.646;24.704;2023-05-10T10:16:29;18.00;48.40
45715;DHT22;31430;61.646;24.704;2023-05-10T10:18:55;18.40;48.70
45715;DHT22;31430;61.646;24.704;2023-05-10T10:21:22;18.70;48.10
45715;DHT22;31430;61.646;24.704;2023-05-10T10:23:47;18.50;46.90
45715;DHT22;31430;61.646;24.704;2023-05-10T10:26:14;18.90;48.00
45715;DHT22;31430;61.646;24.704;2023-05-10T10:32:03;18.80;45.90
45715;DHT22;31430;61.646;24.704;2023-05-10T10:34:28;18.70;47.40
45715;DHT22;31430;61.646;24.704;2023-05-10T10:36:56;18.40;47.10
45715;DHT22;31430;61.646;24.704;2023-05-10T10:39:22;18.70;46.60
45715;DHT22;31430;61.646;24.704;2023-05-10T10:41:56;17.80;47.30
45715;DHT22;31430;61.646;24.704;2023-05-10T10:57:43;18.30;48.30
45715;DHT22;31430;61.646;24.704;2023-05-10T11:08:09;19.20;46.40
45715;DHT22;31430;61.646;24.704;2023-05-10T11:10:35;19.20;46.00
45715;DHT22;31430;61.646;24.704;2023-05-10T11:13:05;19.00;47.20
45715;DHT22;31430;61.646;24.704;2023-05-10T11:15:47;19.00;47.40
45715;DHT22;31430;61.646;24.704;2023-05-10T11:18:18;19.10;47.10
45715;DHT22;31430;61.646;24.704;2023-05-10T11:21:02;19.30;46.70
45715;DHT22;31430;61.646;24.704;2023-05-10T11:23:49;19.40;47.80
45715;DHT22;31430;61.646;24.704;2023-05-10T11:26:15;18.90;46.70
45715;DHT22;31430;61.646;24.704;2023-05-10T11:28:45;19.10;46.70
45715;DHT22;31430;61.646;24.704;2023-05-10T11:31:17;19.10;45.30
45715;DHT22;31430;61.646;24.704;2023-05-10T11:33:51;19.20;45.60
45715;DHT22;31430;61.646;24.704;2023-05-10T11:36:24;19.30;45.50
45715;DHT22;31430;61.646;24.704;2023-05-10T11:38:52;19.50;46.60
45715;DHT22;31430;61.646;24.704;2023-05-10T11:41:19;19.50;45.90
45715;DHT22;31430;61.646;24.704;2023-05-10T11:43:48;19.50;43.50
45715;DHT22;31430;61.646;24.704;2023-05-10T11:46:17;19.10;47.40
45715;DHT22;31430;61.646;24.704;2023-05-10T11:48:43;19.10;46.30
45715;DHT22;31430;61.646;24.704;2023-05-10T11:51:10;19.10;45.60
45715;DHT22;31430;61.646;24.704;2023-05-10T11:53:36;19.00;46.70
45715;DHT22;31430;61.646;24.704;2023-05-10T11:56:07;19.10;45.60
45715;DHT22;31430;61.646;24.704;2023-05-10T11:58:34;19.30;47.10
45715;DHT22;31430;61.646;24.704;2023-05-10T12:01:01;19.50;46.90
45715;DHT22;31430;61.646;24.704;2023-05-10T12:03:27;19.50;46.40
45715;DHT22;31430;61.646;24.704;2023-05-10T12:05:54;19.20;46.10
45715;DHT22;31430;61.646;24.704;2023-05-10T12:08:22;19.00;45.80
45715;DHT22;31430;61.646;24.704;2023-05-10T12:10:49;19.40;46.30
45715;DHT22;31430;61.646;24.704;2023-05-10T12:13:15;19.30;45.10
45715;DHT22;31430;61.646;24.704;2023-05-10T12:15:41;19.40;47.10
45715;DHT22;31430;61.646;24.704;2023-05-10T12:18:11;19.60;47.70
45715;DHT22;31430;61.646;24.704;2023-05-10T12:20:37;19.50;45.00
45715;DHT22;31430;61.646;24.704;2023-05-10T12:23:03;19.40;45.70
45715;DHT22;31430;61.646;24.704;2023-05-10T12:25:37;19.40;46.70
45715;DHT22;31430;61.646;24.704;2023-05-10T12:28:05;19.30;45.50
45715;DHT22;31430;61.646;24.704;2023-05-10T12:30:32;19.50;45.40
45715;DHT22;31430;61.646;24.704;2023-05-10T12:33:12;19.70;45.60
45715;DHT22;31430;61.646;24.704;2023-05-10T12:35:52;19.40;45.20
45715;DHT22;31430;61.646;24.704;2023-05-10T12:38:45;19.30;45.20
45715;DHT22;31430;61.646;24.704;2023-05-10T12:41:15;19.50;47.00
45715;DHT22;31430;61.646;24.704;2023-05-10T12:43:41;19.70;47.00
45715;DHT22;31430;61.646;24.704;2023-05-10T12:48:35;19.70;45.90
45715;DHT22;31430;61.646;24.704;2023-05-10T12:51:02;19.80;44.40
45715;DHT22;31430;61.646;24.704;2023-05-10T12:53:28;19.80;46.00
45715;DHT22;31430;61.646;24.704;2023-05-10T12:55:54;20.00;45.10
45715;DHT22;31430;61.646;24.704;2023-05-10T12:58:20;20.10;44.60
45715;DHT22;31430;61.646;24.704;2023-05-10T13:00:46;19.80;44.70
45715;DHT22;31430;61.646;24.704;2023-05-10T13:03:12;19.60;44.90
45715;DHT22;31430;61.646;24.704;2023-05-10T13:05:38;19.50;44.90
45715;DHT22;31430;61.646;24.704;2023-05-10T13:08:03;19.70;46.10
45715;DHT22;31430;61.646;24.704;2023-05-10T13:10:30;19.90;44.60
45715;DHT22;31430;61.646;24.704;2023-05-10T13:13:00;19.90;44.40
45715;DHT22;31430;61.646;24.704;2023-05-10T13:15:26;19.80;44.30
45715;DHT22;31430;61.646;24.704;2023-05-10T13:17:53;20.00;45.00
45715;DHT22;31430;61.646;24.704;2023-05-10T13:20:18;20.00;45.60
45715;DHT22;31430;61.646;24.704;2023-05-10T13:22:44;19.90;45.20
45715;DHT22;31430;61.646;24.704;2023-05-10T13:25:11;20.00;45.90
45715;DHT22;31430;61.646;24.704;2023-05-10T13:27:37;20.00;45.00
45715;DHT22;31430;61.646;24.704;2023-05-10T13:30:03;19.70;43.60
45715;DHT22;31430;61.646;24.704;2023-05-10T13:32:29;19.60;43.60
45715;DHT22;31430;61.646;24.704;2023-05-10T13:34:55;19.40;44.30
45715;DHT22;31430;61.646;24.704;2023-05-10T13:37:21;19.60;43.10
45715;DHT22;31430;61.646;24.704;2023-05-10T13:39:47;19.60;44.50
45715;DHT22;31430;61.646;24.704;2023-05-10T13:42:13;19.70;44.90
45715;DHT22;31430;61.646;24.704;2023-05-10T13:44:39;19.90;44.60
45715;DHT22;31430;61.646;24.704;2023-05-10T13:47:05;20.00;43.60
45715;DHT22;31430;61.646;24.704;2023-05-10T13:49:30;20.10;43.20
45715;DHT22;31430;61.646;24.704;2023-05-10T13:51:56;20.00;42.90
45715;DHT22;31430;61.646;24.704;2023-05-10T13:54:23;20.00;43.50
45715;DHT22;31430;61.646;24.704;2023-05-10T13:56:49;20.20;43.20
45715;DHT22;31430;61.646;24.704;2023-05-10T13:59:14;20.30;44.00
45715;DHT22;31430;61.646;24.704;2023-05-10T14:01:41;19.80;43.70
45715;DHT22;31430;61.646;24.704;2023-05-10T14:04:08;20.10;44.20
45715;DHT22;31430;61.646;24.704;2023-05-10T14:06:36;20.10;44.30
45715;DHT22;31430;61.646;24.704;2023-05-10T14:09:02;19.90;42.60
45715;DHT22;31430;61.646;24.704;2023-05-10T14:11:28;19.90;44.50
45715;DHT22;31430;61.646;24.704;2023-05-10T14:13:54;19.90;43.50
45715;DHT22;31430;61.646;24.704;2023-05-10T14:16:19;19.80;43.70
45715;DHT22;31430;61.646;24.704;2023-05-10T14:18:46;19.80;44.60
45715;DHT22;31430;61.646;24.704;2023-05-10T14:21:11;19.90;44.40
45715;DHT22;31430;61.646;24.704;2023-05-10T14:23:37;19.90;43.70
45715;DHT22;31430;61.646;24.704;2023-05-10T14:26:03;19.70;43.10
45715;DHT22;31430;61.646;24.704;2023-05-10T14:28:29;19.70;44.10
45715;DHT22;31430;61.646;24.704;2023-05-10T14:30:54;19.90;44.00
45715;DHT22;31430;61.646;24.704;2023-05-10T14:33:20;19.70;42.90
45715;DHT22;31430;61.646;24.704;2023-05-10T14:35:47;19.60;43.50
45715;DHT22;31430;61.646;24.704;2023-05-10T14:38:13;19.50;45.00
45715;DHT22;31430;61.646;24.704;2023-05-10T14:40:39;19.60;43.30
45715;DHT22;31430;61.646;24.704;2023-05-10T14:43:04;19.60;43.80
45715;DHT22;31430;61.646;24.704;2023-05-10T14:45:30;19.60;42.60
45715;DHT22;31430;61.646;24.704;2023-05-10T14:47:57;19.40;42.30
45715;DHT22;31430;61.646;24.704;2023-05-10T14:50:23;19.40;42.70
45715;DHT22;31430;61.646;24.704;2023-05-10T14:52:48;19.40;42.70
45715;DHT22;31430;61.646;24.704;2023-05-10T14:55:14;19.40;42.60
45715;DHT22;31430;61.646;24.704;2023-05-10T14:57:40;19.50;43.80
45715;DHT22;31430;61.646;24.704;2023-05-10T15:00:06;19.60;43.40
45715;DHT22;31430;61.646;24.704;2023-05-10T15:02:32;19.60;42.60
45715;DHT22;31430;61.646;24.704;2023-05-10T15:04:58;19.60;41.70
45715;DHT22;31430;61.646;24.704;2023-05-10T15:07:24;19.80;43.30
45715;DHT22;31430;61.646;24.704;2023-05-10T15:09:50;19.50;41.60
45715;DHT22;31430;61.646;24.704;2023-05-10T15:12:17;19.40;43.40
45715;DHT22;31430;61.646;24.704;2023-05-10T15:14:43;19.30;42.20
45715;DHT22;31430;61.646;24.704;2023-05-10T15:17:09;19.30;42.60
45715;DHT22;31430;61.646;24.704;2023-05-10T15:19:35;19.30;41.60
45715;DHT22;31430;61.646;24.704;2023-05-10T15:22:01;19.10;41.50
45715;DHT22;31430;61.646;24.704;2023-05-10T15:24:27;18.90;43.70
45715;DHT22;31430;61.646;24.704;2023-05-10T15:26:53;19.00;44.00
45715;DHT22;31430;61.646;24.704;2023-05-10T15:29:19;19.00;42.10
45715;DHT22;31430;61.646;24.704;2023-05-10T15:31:49;19.00;42.70
45715;DHT22;31430;61.646;24.704;2023-05-10T15:34:15;18.90;42.50
45715;DHT22;31430;61.646;24.704;2023-05-10T15:36:41;18.90;43.30
45715;DHT22;31430;61.646;24.704;2023-05-10T15:39:07;18.80;41.30
45715;DHT22;31430;61.646;24.704;2023-05-10T15:41:35;18.80;39.80
45715;DHT22;31430;61.646;24.704;2023-05-10T15:44:00;18.50;41.10
45715;DHT22;31430;61.646;24.704;2023-05-10T15:46:27;18.40;39.90
45715;DHT22;31430;61.646;24.704;2023-05-10T15:48:53;18.20;40.40
45715;DHT22;31430;61.646;24.704;2023-05-10T15:51:19;18.30;42.50
45715;DHT22;31430;61.646;24.704;2023-05-10T15:53:45;18.20;41.00
45715;DHT22;31430;61.646;24.704;2023-05-10T15:56:11;18.30;40.80
45715;DHT22;31430;61.646;24.704;2023-05-10T15:58:40;18.20;39.50
45715;DHT22;31430;61.646;24.704;2023-05-10T16:01:06;18.20;41.30
45715;DHT22;31430;61.646;24.704;2023-05-10T16:03:33;18.40;42.30
45715;DHT22;31430;61.646;24.704;2023-05-10T16:05:59;18.40;41.60
45715;DHT22;31430;61.646;24.704;2023-05-10T16:08:25;18.40;41.30
45715;DHT22;31430;61.646;24.704;2023-05-10T16:10:51;18.30;40.40
45715;DHT22;31430;61.646;24.704;2023-05-10T16:13:17;18.20;41.00